sensor_id;sensor_type;location;lat;lon;timestamp;P1;durP1;ratioP1;P2;durP2;ratioP2
28311;SDS011;15572;48.810;9.148;2022-08-01T00:04:19;2.30;;;2.10;;
28311;SDS011;15572;48.810;9.148;2022-08-01T00:09:17;4.45;;;2.20;;
28311;SDS011;15572;48.810;9.148;2022-08-01T00:14:13;2.70;;;2.45;;
28311;SDS011;15572;48.810;9.148;2022-08-01T00:19:10;3.83;;;2.47;;
28311;SDS011;15572;48.810;9.148;2022-08-01T00:24:06;2.85;;;2.58;;
28311;SDS011;15572;48.810;9.148;2022-08-01T00:29:04;2.90;;;2.30;;
28311;SDS011;15572;48.810;9.148;2022-08-01T00:34:01;2.60;;;2.40;;
28311;SDS011;15572;48.810;9.148;2022-08-01T00:38:58;3.10;;;2.30;;
28311;SDS011;15572;48.810;9.148;2022-08-01T00:43:54;3.72;;;2.55;;
28311;SDS011;15572;48.810;9.148;2022-08-01T00:48:52;3.10;;;2.47;;
28311;SDS011;15572;48.810;9.148;2022-08-01T00:53:50;3.88;;;2.50;;
28311;SDS011;15572;48.810;9.148;2022-08-01T00:58:47;4.25;;;2.58;;
28311;SDS011;15572;48.810;9.148;2022-08-01T01:03:44;3.80;;;2.60;;
28311;SDS011;15572;48.810;9.148;2022-08-01T01:08:43;3.00;;;2.75;;
28311;SDS011;15572;48.810;9.148;2022-08-01T01:13:44;3.65;;;2.65;;
28311;SDS011;15572;48.810;9.148;2022-08-01T01:18:47;3.10;;;2.80;;
28311;SDS011;15572;48.810;9.148;2022-08-01T01:23:50;3.28;;;2.65;;
28311;SDS011;15572;48.810;9.148;2022-08-01T01:29:03;2.88;;;2.33;;
28311;SDS011;15572;48.810;9.148;2022-08-01T01:34:04;5.18;;;2.80;;
28311;SDS011;15572;48.810;9.148;2022-08-01T01:39:03;4.22;;;2.75;;
28311;SDS011;15572;48.810;9.148;2022-08-01T01:44:03;4.00;;;2.75;;
28311;SDS011;15572;48.810;9.148;2022-08-01T01:49:01;4.47;;;2.45;;
28311;SDS011;15572;48.810;9.148;2022-08-01T01:53:59;2.78;;;2.58;;
28311;SDS011;15572;48.810;9.148;2022-08-01T01:58:59;3.08;;;2.70;;
28311;SDS011;15572;48.810;9.148;2022-08-01T02:03:58;2.88;;;2.50;;
28311;SDS011;15572;48.810;9.148;2022-08-01T02:08:57;3.55;;;2.80;;
28311;SDS011;15572;48.810;9.148;2022-08-01T02:13:57;4.60;;;2.85;;
28311;SDS011;15572;48.810;9.148;2022-08-01T02:18:56;3.85;;;2.53;;
28311;SDS011;15572;48.810;9.148;2022-08-01T02:23:55;4.25;;;2.83;;
28311;SDS011;15572;48.810;9.148;2022-08-01T02:28:59;4.40;;;3.03;;
28311;SDS011;15572;48.810;9.148;2022-08-01T02:34:04;3.10;;;2.80;;
28311;SDS011;15572;48.810;9.148;2022-08-01T02:39:03;3.88;;;2.83;;
28311;SDS011;15572;48.810;9.148;2022-08-01T02:44:03;3.42;;;3.10;;
28311;SDS011;15572;48.810;9.148;2022-08-01T02:49:05;3.05;;;2.70;;
28311;SDS011;15572;48.810;9.148;2022-08-01T02:54:05;3.00;;;2.70;;
28311;SDS011;15572;48.810;9.148;2022-08-01T02:59:04;3.80;;;3.13;;
28311;SDS011;15572;48.810;9.148;2022-08-01T03:04:02;6.50;;;3.50;;
28311;SDS011;15572;48.810;9.148;2022-08-01T03:09:03;3.60;;;3.10;;
28311;SDS011;15572;48.810;9.148;2022-08-01T03:14:02;3.60;;;3.00;;
28311;SDS011;15572;48.810;9.148;2022-08-01T03:19:05;4.88;;;3.15;;
28311;SDS011;15572;48.810;9.148;2022-08-01T03:24:05;3.83;;;3.17;;
28311;SDS011;15572;48.810;9.148;2022-08-01T03:29:04;3.85;;;3.10;;
28311;SDS011;15572;48.810;9.148;2022-08-01T03:34:02;4.90;;;3.17;;
28311;SDS011;15572;48.810;9.148;2022-08-01T03:39:03;4.13;;;3.00;;
28311;SDS011;15572;48.810;9.148;2022-08-01T03:44:02;5.40;;;3.05;;
28311;SDS011;15572;48.810;9.148;2022-08-01T03:49:02;4.10;;;3.28;;
28311;SDS011;15572;48.810;9.148;2022-08-01T03:54:05;3.83;;;3.05;;
28311;SDS011;15572;48.810;9.148;2022-08-01T03:59:04;5.13;;;3.03;;
28311;SDS011;15572;48.810;9.148;2022-08-01T04:04:01;4.60;;;3.40;;
28311;SDS011;15572;48.810;9.148;2022-08-01T04:09:00;4.28;;;2.95;;
28311;SDS011;15572;48.810;9.148;2022-08-01T04:13:57;3.78;;;2.80;;
28311;SDS011;15572;48.810;9.148;2022-08-01T04:18:54;2.65;;;2.45;;
28311;SDS011;15572;48.810;9.148;2022-08-01T04:23:51;3.30;;;2.63;;
28311;SDS011;15572;48.810;9.148;2022-08-01T04:28:49;4.35;;;2.80;;
28311;SDS011;15572;48.810;9.148;2022-08-01T04:33:50;10.20;;;3.08;;
28311;SDS011;15572;48.810;9.148;2022-08-01T04:38:50;3.33;;;2.60;;
28311;SDS011;15572;48.810;9.148;2022-08-01T04:43:54;5.63;;;4.40;;
28311;SDS011;15572;48.810;9.148;2022-08-01T04:48:52;5.30;;;2.58;;
28311;SDS011;15572;48.810;9.148;2022-08-01T04:53:49;3.38;;;2.10;;
28311;SDS011;15572;48.810;9.148;2022-08-01T04:58:47;2.88;;;2.10;;
28311;SDS011;15572;48.810;9.148;2022-08-01T05:04:05;1.92;;;1.83;;
28311;SDS011;15572;48.810;9.148;2022-08-01T05:09:01;2.47;;;2.03;;
28311;SDS011;15572;48.810;9.148;2022-08-01T05:13:58;1.90;;;1.80;;
28311;SDS011;15572;48.810;9.148;2022-08-01T05:18:55;2.63;;;2.20;;
28311;SDS011;15572;48.810;9.148;2022-08-01T05:23:53;4.07;;;2.20;;
28311;SDS011;15572;48.810;9.148;2022-08-01T05:28:50;2.88;;;1.90;;
28311;SDS011;15572;48.810;9.148;2022-08-01T05:33:46;2.47;;;2.28;;
28311;SDS011;15572;48.810;9.148;2022-08-01T05:38:43;2.17;;;1.95;;
28311;SDS011;15572;48.810;9.148;2022-08-01T05:43:41;4.38;;;2.28;;
28311;SDS011;15572;48.810;9.148;2022-08-01T05:48:37;3.65;;;1.83;;
28311;SDS011;15572;48.810;9.148;2022-08-01T05:53:34;2.63;;;1.80;;
28311;SDS011;15572;48.810;9.148;2022-08-01T05:58:30;2.50;;;1.63;;
28311;SDS011;15572;48.810;9.148;2022-08-01T06:03:29;2.95;;;1.70;;
28311;SDS011;15572;48.810;9.148;2022-08-01T06:08:28;1.90;;;1.70;;
28311;SDS011;15572;48.810;9.148;2022-08-01T06:13:25;2.30;;;1.60;;
28311;SDS011;15572;48.810;9.148;2022-08-01T06:18:22;2.15;;;1.70;;
28311;SDS011;15572;48.810;9.148;2022-08-01T06:23:21;1.70;;;1.40;;
28311;SDS011;15572;48.810;9.148;2022-08-01T06:28:17;3.08;;;1.85;;
28311;SDS011;15572;48.810;9.148;2022-08-01T06:33:14;1.77;;;1.60;;
28311;SDS011;15572;48.810;9.148;2022-08-01T06:38:11;2.75;;;1.52;;
28311;SDS011;15572;48.810;9.148;2022-08-01T06:43:08;4.20;;;1.60;;
28311;SDS011;15572;48.810;9.148;2022-08-01T06:48:06;1.63;;;1.52;;
28311;SDS011;15572;48.810;9.148;2022-08-01T06:53:03;3.22;;;1.65;;
28311;SDS011;15572;48.810;9.148;2022-08-01T06:58:00;2.47;;;1.50;;
28311;SDS011;15572;48.810;9.148;2022-08-01T07:02:57;2.42;;;1.50;;
28311;SDS011;15572;48.810;9.148;2022-08-01T07:07:54;1.60;;;1.33;;
28311;SDS011;15572;48.810;9.148;2022-08-01T07:12:51;2.75;;;1.55;;
28311;SDS011;15572;48.810;9.148;2022-08-01T07:17:47;2.83;;;1.38;;
28311;SDS011;15572;48.810;9.148;2022-08-01T07:22:45;2.05;;;1.77;;
28311;SDS011;15572;48.810;9.148;2022-08-01T07:27:42;1.85;;;1.67;;
28311;SDS011;15572;48.810;9.148;2022-08-01T07:32:38;3.80;;;1.70;;
28311;SDS011;15572;48.810;9.148;2022-08-01T07:37:35;2.95;;;1.88;;
28311;SDS011;15572;48.810;9.148;2022-08-01T07:42:33;3.60;;;1.63;;
28311;SDS011;15572;48.810;9.148;2022-08-01T07:47:29;3.88;;;1.90;;
28311;SDS011;15572;48.810;9.148;2022-08-01T07:52:26;4.22;;;1.80;;
28311;SDS011;15572;48.810;9.148;2022-08-01T07:57:23;4.82;;;1.98;;
28311;SDS011;15572;48.810;9.148;2022-08-01T08:02:20;4.30;;;1.92;;
28311;SDS011;15572;48.810;9.148;2022-08-01T08:12:23;2.38;;;1.90;;
28311;SDS011;15572;48.810;9.148;2022-08-01T08:17:21;2.85;;;1.80;;
28311;SDS011;15572;48.810;9.148;2022-08-01T08:22:18;3.78;;;1.80;;
28311;SDS011;15572;48.810;9.148;2022-08-01T08:27:14;2.75;;;2.00;;
28311;SDS011;15572;48.810;9.148;2022-08-01T08:32:11;2.60;;;2.00;;
28311;SDS011;15572;48.810;9.148;2022-08-01T08:37:09;2.38;;;1.90;;
28311;SDS011;15572;48.810;9.148;2022-08-01T08:42:06;3.20;;;2.00;;
28311;SDS011;15572;48.810;9.148;2022-08-01T08:47:04;2.75;;;2.40;;
28311;SDS011;15572;48.810;9.148;2022-08-01T08:52:03;5.40;;;3.67;;
28311;SDS011;15572;48.810;9.148;2022-08-01T08:57:02;6.32;;;3.38;;
28311;SDS011;15572;48.810;9.148;2022-08-01T09:02:00;7.97;;;5.00;;
28311;SDS011;15572;48.810;9.148;2022-08-01T09:06:57;7.43;;;5.00;;
28311;SDS011;15572;48.810;9.148;2022-08-01T09:11:54;7.93;;;5.55;;
28311;SDS011;15572;48.810;9.148;2022-08-01T09:17:00;8.55;;;5.20;;
28311;SDS011;15572;48.810;9.148;2022-08-01T09:22:03;4.65;;;3.72;;
28311;SDS011;15572;48.810;9.148;2022-08-01T09:27:01;4.15;;;3.40;;
28311;SDS011;15572;48.810;9.148;2022-08-01T09:32:13;3.90;;;2.97;;
28311;SDS011;15572;48.810;9.148;2022-08-01T09:37:10;4.82;;;3.17;;
28311;SDS011;15572;48.810;9.148;2022-08-01T09:42:19;4.18;;;3.75;;
28311;SDS011;15572;48.810;9.148;2022-08-01T09:47:19;5.90;;;3.88;;
28311;SDS011;15572;48.810;9.148;2022-08-01T09:52:17;5.20;;;3.70;;
28311;SDS011;15572;48.810;9.148;2022-08-01T09:57:15;6.28;;;4.05;;
28311;SDS011;15572;48.810;9.148;2022-08-01T10:02:14;7.68;;;3.90;;
28311;SDS011;15572;48.810;9.148;2022-08-01T10:07:25;6.43;;;4.05;;
28311;SDS011;15572;48.810;9.148;2022-08-01T10:12:22;4.10;;;3.45;;
28311;SDS011;15572;48.810;9.148;2022-08-01T10:17:19;4.72;;;3.40;;
28311;SDS011;15572;48.810;9.148;2022-08-01T10:22:17;3.45;;;2.58;;
28311;SDS011;15572;48.810;9.148;2022-08-01T10:27:15;4.03;;;2.35;;
28311;SDS011;15572;48.810;9.148;2022-08-01T10:32:13;3.60;;;2.60;;
28311;SDS011;15572;48.810;9.148;2022-08-01T10:37:10;5.55;;;3.00;;
28311;SDS011;15572;48.810;9.148;2022-08-01T10:42:11;3.70;;;3.10;;
28311;SDS011;15572;48.810;9.148;2022-08-01T10:47:09;4.30;;;3.50;;
28311;SDS011;15572;48.810;9.148;2022-08-01T10:52:07;3.35;;;2.90;;
28311;SDS011;15572;48.810;9.148;2022-08-01T10:57:12;3.47;;;2.47;;
28311;SDS011;15572;48.810;9.148;2022-08-01T11:02:09;4.00;;;2.90;;
28311;SDS011;15572;48.810;9.148;2022-08-01T11:07:06;3.60;;;2.80;;
28311;SDS011;15572;48.810;9.148;2022-08-01T11:12:04;5.00;;;3.22;;
28311;SDS011;15572;48.810;9.148;2022-08-01T11:22:29;5.45;;;2.58;;
28311;SDS011;15572;48.810;9.148;2022-08-01T11:27:26;2.72;;;2.50;;
28311;SDS011;15572;48.810;9.148;2022-08-01T11:32:25;3.33;;;2.47;;
28311;SDS011;15572;48.810;9.148;2022-08-01T11:37:24;3.13;;;2.85;;
28311;SDS011;15572;48.810;9.148;2022-08-01T11:42:21;6.40;;;2.80;;
28311;SDS011;15572;48.810;9.148;2022-08-01T11:52:41;4.40;;;2.35;;
28311;SDS011;15572;48.810;9.148;2022-08-01T11:57:40;2.63;;;2.42;;
28311;SDS011;15572;48.810;9.148;2022-08-01T12:02:36;3.03;;;2.67;;
28311;SDS011;15572;48.810;9.148;2022-08-01T12:07:33;2.55;;;2.35;;
28311;SDS011;15572;48.810;9.148;2022-08-01T12:12:33;4.40;;;2.65;;
28311;SDS011;15572;48.810;9.148;2022-08-01T12:17:31;3.10;;;2.80;;
28311;SDS011;15572;48.810;9.148;2022-08-01T12:22:29;10.07;;;2.63;;
28311;SDS011;15572;48.810;9.148;2022-08-01T12:27:26;5.05;;;2.83;;
28311;SDS011;15572;48.810;9.148;2022-08-01T12:32:27;4.30;;;2.60;;
28311;SDS011;15572;48.810;9.148;2022-08-01T12:37:25;2.95;;;2.35;;
28311;SDS011;15572;48.810;9.148;2022-08-01T12:42:22;3.75;;;2.60;;
28311;SDS011;15572;48.810;9.148;2022-08-01T12:47:20;2.60;;;2.40;;
28311;SDS011;15572;48.810;9.148;2022-08-01T12:52:19;2.95;;;2.20;;
28311;SDS011;15572;48.810;9.148;2022-08-01T12:57:23;3.08;;;2.10;;
28311;SDS011;15572;48.810;9.148;2022-08-01T13:02:20;5.15;;;2.35;;
28311;SDS011;15572;48.810;9.148;2022-08-01T13:07:16;4.80;;;2.47;;
28311;SDS011;15572;48.810;9.148;2022-08-01T13:12:14;6.93;;;2.60;;
28311;SDS011;15572;48.810;9.148;2022-08-01T13:17:11;2.58;;;2.38;;
28311;SDS011;15572;48.810;9.148;2022-08-01T13:22:07;2.65;;;2.00;;
28311;SDS011;15572;48.810;9.148;2022-08-01T13:27:04;1.90;;;1.77;;
28311;SDS011;15572;48.810;9.148;2022-08-01T13:32:12;2.35;;;2.13;;
28311;SDS011;15572;48.810;9.148;2022-08-01T13:37:10;4.97;;;2.13;;
28311;SDS011;15572;48.810;9.148;2022-08-01T13:42:07;2.65;;;2.17;;
28311;SDS011;15572;48.810;9.148;2022-08-01T13:47:04;4.15;;;2.00;;
28311;SDS011;15572;48.810;9.148;2022-08-01T13:52:03;4.25;;;1.80;;
28311;SDS011;15572;48.810;9.148;2022-08-01T13:57:02;2.60;;;2.10;;
28311;SDS011;15572;48.810;9.148;2022-08-01T14:01:58;5.15;;;2.20;;
28311;SDS011;15572;48.810;9.148;2022-08-01T14:06:55;3.83;;;1.90;;
28311;SDS011;15572;48.810;9.148;2022-08-01T14:11:53;4.65;;;2.00;;
28311;SDS011;15572;48.810;9.148;2022-08-01T14:16:49;2.30;;;2.10;;
28311;SDS011;15572;48.810;9.148;2022-08-01T14:21:46;4.10;;;2.10;;
28311;SDS011;15572;48.810;9.148;2022-08-01T14:26:42;5.07;;;2.10;;
28311;SDS011;15572;48.810;9.148;2022-08-01T14:31:40;3.15;;;2.30;;
28311;SDS011;15572;48.810;9.148;2022-08-01T14:36:37;4.05;;;3.10;;
28311;SDS011;15572;48.810;9.148;2022-08-01T14:41:33;4.32;;;2.10;;
28311;SDS011;15572;48.810;9.148;2022-08-01T14:46:30;3.05;;;2.05;;
28311;SDS011;15572;48.810;9.148;2022-08-01T14:51:28;2.72;;;2.00;;
28311;SDS011;15572;48.810;9.148;2022-08-01T14:56:28;2.75;;;2.03;;
28311;SDS011;15572;48.810;9.148;2022-08-01T15:01:24;4.55;;;1.90;;
28311;SDS011;15572;48.810;9.148;2022-08-01T15:06:20;4.72;;;2.15;;
28311;SDS011;15572;48.810;9.148;2022-08-01T15:11:18;3.78;;;2.15;;
28311;SDS011;15572;48.810;9.148;2022-08-01T15:16:15;2.90;;;2.10;;
28311;SDS011;15572;48.810;9.148;2022-08-01T15:21:11;3.10;;;2.00;;
28311;SDS011;15572;48.810;9.148;2022-08-01T15:26:08;3.67;;;2.00;;
28311;SDS011;15572;48.810;9.148;2022-08-01T15:31:10;2.25;;;1.70;;
28311;SDS011;15572;48.810;9.148;2022-08-01T15:36:06;3.85;;;2.13;;
28311;SDS011;15572;48.810;9.148;2022-08-01T15:41:03;2.22;;;2.00;;
28311;SDS011;15572;48.810;9.148;2022-08-01T15:45:59;5.93;;;2.10;;
28311;SDS011;15572;48.810;9.148;2022-08-01T15:50:57;3.15;;;1.90;;
28311;SDS011;15572;48.810;9.148;2022-08-01T15:55:54;2.10;;;1.55;;
28311;SDS011;15572;48.810;9.148;2022-08-01T16:00:50;2.92;;;1.48;;
28311;SDS011;15572;48.810;9.148;2022-08-01T16:05:47;2.47;;;1.58;;
28311;SDS011;15572;48.810;9.148;2022-08-01T16:10:45;3.17;;;1.48;;
28311;SDS011;15572;48.810;9.148;2022-08-01T16:15:42;2.15;;;1.70;;
28311;SDS011;15572;48.810;9.148;2022-08-01T16:20:38;4.55;;;1.73;;
28311;SDS011;15572;48.810;9.148;2022-08-01T16:25:35;3.72;;;1.75;;
28311;SDS011;15572;48.810;9.148;2022-08-01T16:30:33;2.45;;;1.45;;
28311;SDS011;15572;48.810;9.148;2022-08-01T16:35:30;2.20;;;1.30;;
28311;SDS011;15572;48.810;9.148;2022-08-01T16:40:26;3.50;;;2.00;;
28311;SDS011;15572;48.810;9.148;2022-08-01T16:45:23;1.40;;;1.30;;
28311;SDS011;15572;48.810;9.148;2022-08-01T16:50:21;1.90;;;1.70;;
28311;SDS011;15572;48.810;9.148;2022-08-01T16:55:17;3.00;;;1.58;;
28311;SDS011;15572;48.810;9.148;2022-08-01T17:00:17;1.98;;;1.30;;
28311;SDS011;15572;48.810;9.148;2022-08-01T17:05:14;3.65;;;1.83;;
28311;SDS011;15572;48.810;9.148;2022-08-01T17:10:12;1.75;;;1.60;;
28311;SDS011;15572;48.810;9.148;2022-08-01T17:15:09;1.50;;;1.30;;
28311;SDS011;15572;48.810;9.148;2022-08-01T17:20:06;3.25;;;2.75;;
28311;SDS011;15572;48.810;9.148;2022-08-01T17:25:04;1.67;;;1.20;;
28311;SDS011;15572;48.810;9.148;2022-08-01T17:30:02;2.70;;;1.50;;
28311;SDS011;15572;48.810;9.148;2022-08-01T17:34:59;2.72;;;1.30;;
28311;SDS011;15572;48.810;9.148;2022-08-01T17:39:55;2.15;;;1.20;;
28311;SDS011;15572;48.810;9.148;2022-08-01T17:44:52;1.58;;;1.27;;
28311;SDS011;15572;48.810;9.148;2022-08-01T17:49:50;1.70;;;1.25;;
28311;SDS011;15572;48.810;9.148;2022-08-01T17:54:47;1.90;;;1.13;;
28311;SDS011;15572;48.810;9.148;2022-08-01T17:59:43;1.88;;;1.20;;
28311;SDS011;15572;48.810;9.148;2022-08-01T18:04:40;3.08;;;1.23;;
28311;SDS011;15572;48.810;9.148;2022-08-01T18:09:38;4.28;;;1.40;;
28311;SDS011;15572;48.810;9.148;2022-08-01T18:14:34;2.45;;;1.17;;
28311;SDS011;15572;48.810;9.148;2022-08-01T18:19:30;3.47;;;1.23;;
28311;SDS011;15572;48.810;9.148;2022-08-01T18:24:27;3.90;;;1.38;;
28311;SDS011;15572;48.810;9.148;2022-08-01T18:29:25;2.95;;;1.20;;
28311;SDS011;15572;48.810;9.148;2022-08-01T18:34:22;1.90;;;1.50;;
28311;SDS011;15572;48.810;9.148;2022-08-01T18:39:19;2.22;;;1.60;;
28311;SDS011;15572;48.810;9.148;2022-08-01T18:44:15;4.40;;;1.40;;
28311;SDS011;15572;48.810;9.148;2022-08-01T18:49:13;1.30;;;1.20;;
28311;SDS011;15572;48.810;9.148;2022-08-01T18:54:10;1.33;;;1.23;;
28311;SDS011;15572;48.810;9.148;2022-08-01T18:59:07;5.15;;;1.35;;
28311;SDS011;15572;48.810;9.148;2022-08-01T19:04:04;1.75;;;1.40;;
28311;SDS011;15572;48.810;9.148;2022-08-01T19:09:02;1.42;;;1.17;;
28311;SDS011;15572;48.810;9.148;2022-08-01T19:13:59;2.17;;;1.20;;
28311;SDS011;15572;48.810;9.148;2022-08-01T19:18:56;1.30;;;1.10;;
28311;SDS011;15572;48.810;9.148;2022-08-01T19:23:52;3.53;;;1.60;;
28311;SDS011;15572;48.810;9.148;2022-08-01T19:29:18;1.60;;;0.90;;
28311;SDS011;15572;48.810;9.148;2022-08-01T19:34:17;1.55;;;1.20;;
28311;SDS011;15572;48.810;9.148;2022-08-01T19:39:14;1.83;;;1.20;;
28311;SDS011;15572;48.810;9.148;2022-08-01T19:44:17;1.90;;;1.05;;
28311;SDS011;15572;48.810;9.148;2022-08-01T19:49:15;1.63;;;1.10;;
28311;SDS011;15572;48.810;9.148;2022-08-01T19:54:12;2.67;;;1.10;;
28311;SDS011;15572;48.810;9.148;2022-08-01T19:59:14;1.98;;;1.30;;
28311;SDS011;15572;48.810;9.148;2022-08-01T20:04:12;1.73;;;1.00;;
28311;SDS011;15572;48.810;9.148;2022-08-01T20:14:07;3.08;;;0.93;;
28311;SDS011;15572;48.810;9.148;2022-08-01T20:19:06;1.20;;;0.93;;
28311;SDS011;15572;48.810;9.148;2022-08-01T20:24:04;2.50;;;1.20;;
28311;SDS011;15572;48.810;9.148;2022-08-01T20:29:03;2.22;;;1.40;;
28311;SDS011;15572;48.810;9.148;2022-08-01T20:34:00;3.08;;;1.58;;
28311;SDS011;15572;48.810;9.148;2022-08-01T20:38:57;3.33;;;1.55;;
28311;SDS011;15572;48.810;9.148;2022-08-01T20:43:56;1.75;;;1.45;;
28311;SDS011;15572;48.810;9.148;2022-08-01T20:48:53;2.42;;;1.50;;
28311;SDS011;15572;48.810;9.148;2022-08-01T20:53:51;3.17;;;1.50;;
28311;SDS011;15572;48.810;9.148;2022-08-01T20:59:04;3.40;;;1.67;;
28311;SDS011;15572;48.810;9.148;2022-08-01T21:04:16;1.92;;;1.35;;
28311;SDS011;15572;48.810;9.148;2022-08-01T21:09:22;2.90;;;1.63;;
28311;SDS011;15572;48.810;9.148;2022-08-01T21:14:21;1.85;;;1.73;;
28311;SDS011;15572;48.810;9.148;2022-08-01T21:19:27;3.22;;;1.90;;
28311;SDS011;15572;48.810;9.148;2022-08-01T21:24:30;1.88;;;1.73;;
28311;SDS011;15572;48.810;9.148;2022-08-01T21:29:39;3.80;;;2.08;;
28311;SDS011;15572;48.810;9.148;2022-08-01T21:34:37;4.22;;;1.70;;
28311;SDS011;15572;48.810;9.148;2022-08-01T21:39:35;8.10;;;2.10;;
28311;SDS011;15572;48.810;9.148;2022-08-01T21:44:32;3.08;;;2.00;;
28311;SDS011;15572;48.810;9.148;2022-08-01T21:49:30;2.22;;;2.00;;
28311;SDS011;15572;48.810;9.148;2022-08-01T21:54:27;3.47;;;1.92;;
28311;SDS011;15572;48.810;9.148;2022-08-01T21:59:27;2.80;;;1.90;;
28311;SDS011;15572;48.810;9.148;2022-08-01T22:04:36;4.07;;;2.08;;
28311;SDS011;15572;48.810;9.148;2022-08-01T22:09:36;4.45;;;2.20;;
28311;SDS011;15572;48.810;9.148;2022-08-01T22:14:34;2.67;;;1.70;;
28311;SDS011;15572;48.810;9.148;2022-08-01T22:19:36;2.60;;;2.00;;
28311;SDS011;15572;48.810;9.148;2022-08-01T22:24:33;2.95;;;2.00;;
28311;SDS011;15572;48.810;9.148;2022-08-01T22:29:32;3.05;;;2.20;;
28311;SDS011;15572;48.810;9.148;2022-08-01T22:34:29;3.17;;;2.22;;
28311;SDS011;15572;48.810;9.148;2022-08-01T22:39:27;3.03;;;2.10;;
28311;SDS011;15572;48.810;9.148;2022-08-01T22:44:24;3.53;;;2.22;;
28311;SDS011;15572;48.810;9.148;2022-08-01T22:49:30;2.60;;;2.08;;
28311;SDS011;15572;48.810;9.148;2022-08-01T22:54:33;3.83;;;2.00;;
28311;SDS011;15572;48.810;9.148;2022-08-01T22:59:32;2.20;;;1.92;;
28311;SDS011;15572;48.810;9.148;2022-08-01T23:04:38;3.10;;;2.00;;
28311;SDS011;15572;48.810;9.148;2022-08-01T23:09:39;2.13;;;1.70;;
28311;SDS011;15572;48.810;9.148;2022-08-01T23:14:36;2.72;;;1.90;;
28311;SDS011;15572;48.810;9.148;2022-08-01T23:19:34;2.40;;;2.10;;
28311;SDS011;15572;48.810;9.148;2022-08-01T23:24:32;4.63;;;2.40;;
28311;SDS011;15572;48.810;9.148;2022-08-01T23:29:30;3.05;;;2.25;;
28311;SDS011;15572;48.810;9.148;2022-08-01T23:34:27;3.03;;;2.33;;
28311;SDS011;15572;48.810;9.148;2022-08-01T23:39:24;5.72;;;2.38;;
28311;SDS011;15572;48.810;9.148;2022-08-01T23:44:20;2.45;;;2.00;;
28311;SDS011;15572;48.810;9.148;2022-08-01T23:49:18;2.90;;;2.40;;
28311;SDS011;15572;48.810;9.148;2022-08-01T23:54:14;3.40;;;2.15;;
28311;SDS011;15572;48.810;9.148;2022-08-01T23:59:11;2.30;;;2.00;;
